Time;durP1;ratioP1;P1;durP2;ratioP2;P2;SDS_P1;SDS_P2;PMS_P1;PMS_P2;Temp;Humidity;BMP_temperature;BMP_pressure;BME280_temperature;BME280_humidity;BME280_pressure;Samples;Min_cycle;Max_cycle;Signal;HPM_P1;HPM_P2
2022/08/24 00:00:16;;;;;;;55.70;28.10;;;;;;;19.26;100.00;100518.59;105960;1270;22558;-64
2022/08/24 00:03:10;;;;;;;53.50;29.00;;;;;;;19.27;100.00;100518.01;105865;1270;26527;-64
2022/08/24 00:05:42;;;;;;;53.00;27.70;;;;;;;19.29;100.00;100515.77;106102;1270;22549;-63
2022/08/24 00:08:14;;;;;;;58.20;28.20;;;;;;;19.30;100.00;100514.59;105944;1270;22534;-64
2022/08/24 00:10:47;;;;;;;57.50;28.10;;;;;;;19.31;100.00;100515.75;106113;1270;22657;-64
2022/08/24 00:13:20;;;;;;;63.30;29.70;;;;;;;19.32;100.00;100516.27;106040;1270;24309;-64
2022/08/24 00:15:51;;;;;;;58.60;28.10;;;;;;;19.33;100.00;100519.66;105910;1270;25343;-64
2022/08/24 00:18:24;;;;;;;55.00;27.60;;;;;;;19.33;100.00;100518.05;105945;1270;23960;-64
2022/08/24 00:20:56;;;;;;;67.10;28.40;;;;;;;19.32;100.00;100523.06;105865;1267;22573;-64
2022/08/24 00:23:29;;;;;;;54.30;28.00;;;;;;;19.33;100.00;100521.45;105913;1270;22531;-64
2022/08/24 00:26:03;;;;;;;50.80;24.90;;;;;;;19.33;100.00;100524.96;106080;1270;22534;-64
2022/08/24 00:28:36;;;;;;;50.80;27.10;;;;;;;19.34;100.00;100520.69;105941;1270;24238;-64
2022/08/24 00:31:08;;;;;;;57.00;25.90;;;;;;;19.36;100.00;100515.78;105954;1270;22542;-65
2022/08/24 00:33:40;;;;;;;55.80;26.90;;;;;;;19.38;100.00;100512.52;106136;1270;22626;-65
2022/08/24 00:36:11;;;;;;;55.70;26.70;;;;;;;19.39;100.00;100507.15;106080;1270;24325;-65
2022/08/24 00:38:43;;;;;;;52.70;26.30;;;;;;;19.40;100.00;100505.55;105913;1270;22532;-64
2022/08/24 00:41:15;;;;;;;47.20;25.70;;;;;;;19.39;100.00;100500.36;105982;1270;25373;-64
2022/08/24 00:43:55;;;;;;;50.70;26.40;;;;;;;19.39;100.00;100494.28;105873;1270;26242;-65
2022/08/24 00:46:31;;;;;;;57.50;25.00;;;;;;;19.39;100.00;100496.99;105865;1270;22554;-65
2022/08/24 00:49:06;;;;;;;48.30;26.20;;;;;;;19.38;100.00;100495.52;106114;1270;23178;-65
2022/08/24 00:51:46;;;;;;;53.20;26.50;;;;;;;19.36;100.00;100495.09;106091;1270;22697;-65
2022/08/24 00:54:19;;;;;;;47.80;24.50;;;;;;;19.34;100.00;100491.40;105971;1270;24496;-65
2022/08/24 00:56:56;;;;;;;49.50;25.70;;;;;;;19.34;100.00;100489.90;105955;1270;22567;-66
2022/08/24 00:59:32;;;;;;;50.60;24.20;;;;;;;19.33;100.00;100487.14;105862;1270;25377;-65
2022/08/24 01:02:10;;;;;;;50.70;25.40;;;;;;;19.33;100.00;100483.52;106073;1270;25378;-64
2022/08/24 01:04:48;;;;;;;46.80;24.90;;;;;;;19.33;100.00;100486.90;106168;1270;22540;-65
2022/08/24 01:07:21;;;;;;;46.60;25.40;;;;;;;19.32;100.00;100481.35;105950;1270;22539;-65
2022/08/24 01:09:55;;;;;;;60.70;27.00;;;;;;;19.32;100.00;100486.83;106072;1270;22565;-65
2022/08/24 01:12:30;;;;;;;57.30;26.30;;;;;;;19.32;100.00;100487.80;106010;1270;23077;-65
2022/08/24 01:15:03;;;;;;;51.50;26.10;;;;;;;19.32;100.00;100480.19;105969;1270;24242;-65
2022/08/24 01:20:26;;;;;;;61.80;27.30;;;;;;;19.31;100.00;100474.47;105895;1270;22689;-65
2022/08/24 01:23:05;;;;;;;61.90;28.90;;;;;;;19.32;100.00;100478.02;105904;1270;25275;-64
2022/08/24 01:25:42;;;;;;;61.00;28.60;;;;;;;19.32;100.00;100481.52;105952;1270;22994;-65
2022/08/24 01:28:18;;;;;;;66.40;29.90;;;;;;;19.33;100.00;100483.48;106113;1270;22578;-65
2022/08/24 01:30:49;;;;;;;56.80;25.40;;;;;;;19.33;100.00;100483.11;106044;1270;22534;-65
2022/08/24 01:33:27;;;;;;;71.80;31.80;;;;;;;19.31;100.00;100475.60;106015;1270;22611;-65
2022/08/24 01:36:05;;;;;;;56.30;28.00;;;;;;;19.32;100.00;100473.08;106085;1270;22989;-65
2022/08/24 01:38:37;;;;;;;54.00;26.90;;;;;;;19.32;100.00;100476.89;106196;1270;22605;-66
2022/08/24 01:41:09;;;;;;;59.10;27.50;;;;;;;19.31;100.00;100480.34;106165;1270;24275;-66
2022/08/24 01:43:40;;;;;;;56.10;27.80;;;;;;;19.30;100.00;100480.81;106129;1270;22568;-65
2022/08/24 01:46:12;;;;;;;54.30;26.60;;;;;;;19.30;100.00;100479.88;106160;1270;24328;-66
2022/08/24 01:48:44;;;;;;;59.00;27.10;;;;;;;19.29;100.00;100479.48;106186;1270;22834;-66
2022/08/24 01:51:16;;;;;;;58.80;27.30;;;;;;;19.28;100.00;100480.73;106172;1270;22525;-64
2022/08/24 01:53:48;;;;;;;58.80;27.00;;;;;;;19.27;100.00;100484.14;106057;1270;23051;-65
2022/08/24 01:56:20;;;;;;;64.00;29.90;;;;;;;19.26;100.00;100482.88;106021;1270;22681;-66
2022/08/24 01:58:52;;;;;;;60.40;28.40;;;;;;;19.27;100.00;100488.33;105980;1270;22696;-64
2022/08/24 02:01:25;;;;;;;61.80;28.30;;;;;;;19.26;100.00;100486.47;106014;1270;24326;-64
2022/08/24 02:04:00;;;;;;;55.20;27.30;;;;;;;19.26;100.00;100486.47;105932;1270;24309;-65
2022/08/24 02:06:33;;;;;;;55.10;27.90;;;;;;;19.27;100.00;100491.72;106029;1270;23532;-66
2022/08/24 02:09:05;;;;;;;53.60;30.40;;;;;;;19.27;100.00;100489.04;106062;1270;24260;-65
2022/08/24 02:11:38;;;;;;;57.00;26.80;;;;;;;19.27;100.00;100491.77;106159;1270;22532;-64
2022/08/24 02:14:10;;;;;;;61.30;28.60;;;;;;;19.26;100.00;100495.83;106123;1270;22538;-65
2022/08/24 02:16:42;;;;;;;57.00;28.90;;;;;;;19.26;100.00;100498.77;106080;1270;22550;-65
2022/08/24 02:19:14;;;;;;;55.80;29.60;;;;;;;19.27;100.00;100501.13;106133;1270;25464;-65
2022/08/24 02:21:46;;;;;;;52.60;29.80;;;;;;;19.28;100.00;100511.88;106088;1270;24450;-65
2022/08/24 02:24:18;;;;;;;58.80;27.40;;;;;;;19.29;100.00;100512.42;106117;1270;24005;-65
2022/08/24 02:26:50;;;;;;;58.50;30.60;;;;;;;19.30;100.00;100507.02;106034;1270;25370;-64
2022/08/24 02:29:22;;;;;;;56.40;30.00;;;;;;;19.31;100.00;100506.79;106121;1270;22553;-65
2022/08/24 02:31:53;;;;;;;53.20;27.80;;;;;;;19.32;100.00;100513.17;106165;1270;22557;-64
2022/08/24 02:34:25;;;;;;;60.60;28.50;;;;;;;19.32;100.00;100517.75;106096;1270;24292;-65
2022/08/24 02:36:58;;;;;;;59.10;28.50;;;;;;;19.33;100.00;100519.80;105956;1270;22623;-65
2022/08/24 02:39:31;;;;;;;59.80;28.80;;;;;;;19.35;100.00;100521.87;106080;1270;22534;-64
2022/08/24 02:42:03;;;;;;;53.20;26.70;;;;;;;19.35;100.00;100530.14;106013;1270;23950;-65
2022/08/24 02:44:35;;;;;;;53.70;26.30;;;;;;;19.36;100.00;100530.04;106049;1270;22551;-64
2022/08/24 02:47:08;;;;;;;64.80;27.40;;;;;;;19.35;100.00;100532.51;105966;1270;24960;-64
2022/08/24 02:49:40;;;;;;;52.10;26.90;;;;;;;19.35;100.00;100530.25;106032;1270;25260;-65
2022/08/24 02:52:12;;;;;;;52.10;26.30;;;;;;;19.35;100.00;100528.30;106036;1270;22669;-66
2022/08/24 02:54:44;;;;;;;57.30;26.60;;;;;;;19.34;100.00;100522.96;105958;1270;25329;-65
2022/08/24 02:57:15;;;;;;;58.20;28.70;;;;;;;19.33;100.00;100519.66;105931;1270;22562;-65
2022/08/24 02:59:47;;;;;;;59.30;27.60;;;;;;;19.31;100.00;100518.27;105956;1270;22687;-65
2022/08/24 03:02:19;;;;;;;57.70;25.30;;;;;;;19.29;100.00;100517.68;105934;1270;25407;-64
2022/08/24 03:04:50;;;;;;;55.10;27.10;;;;;;;19.28;100.00;100521.80;105887;1270;24322;-65
2022/08/24 03:07:22;;;;;;;59.20;27.50;;;;;;;19.28;100.00;100523.57;105840;1270;22580;-65
2022/08/24 03:09:53;;;;;;;47.70;25.00;;;;;;;19.27;100.00;100521.87;106117;1270;24216;-65
2022/08/24 03:12:25;;;;;;;53.90;29.30;;;;;;;19.26;100.00;100524.73;106123;1270;22544;-66
2022/08/24 03:14:57;;;;;;;48.80;27.90;;;;;;;19.25;100.00;100532.14;106064;1270;22547;-65
2022/08/24 03:17:30;;;;;;;49.20;24.60;;;;;;;19.25;100.00;100536.36;106140;1270;22544;-65
2022/08/24 03:20:02;;;;;;;53.50;28.00;;;;;;;19.25;100.00;100538.21;106031;1270;22689;-65
2022/08/24 03:22:33;;;;;;;60.10;28.10;;;;;;;19.25;100.00;100546.55;106081;1270;22544;-65
2022/08/24 03:25:07;;;;;;;52.20;27.20;;;;;;;19.24;100.00;100548.77;105956;1270;22541;-65
2022/08/24 03:27:39;;;;;;;56.60;27.80;;;;;;;19.24;100.00;100544.39;105961;1270;22882;-66
2022/08/24 03:30:15;;;;;;;54.30;28.20;;;;;;;19.23;100.00;100549.97;105979;1269;22549;-64
2022/08/24 03:32:47;;;;;;;55.20;26.10;;;;;;;19.23;100.00;100551.36;105887;1270;22698;-65
2022/08/24 03:35:21;;;;;;;54.90;28.30;;;;;;;19.24;100.00;100553.83;105898;1270;25234;-65
2022/08/24 03:37:53;;;;;;;50.30;27.30;;;;;;;19.25;100.00;100555.81;105971;1270;24263;-65
2022/08/24 03:40:26;;;;;;;56.70;27.90;;;;;;;19.26;100.00;100557.65;105977;1270;24320;-65
2022/08/24 03:42:59;;;;;;;50.80;26.30;;;;;;;19.29;100.00;100563.59;105836;1270;25327;-65
2022/08/24 03:45:31;;;;;;;50.40;27.80;;;;;;;19.30;100.00;100556.56;105856;1270;22546;-65
2022/08/24 03:48:03;;;;;;;54.50;26.90;;;;;;;19.31;100.00;100565.52;106371;1270;25330;-66
2022/08/24 03:50:35;;;;;;;60.70;25.60;;;;;;;19.32;100.00;100569.73;106004;1270;22534;-65
2022/08/24 03:53:07;;;;;;;59.50;27.50;;;;;;;19.34;100.00;100570.66;106115;1270;24276;-65
2022/08/24 03:55:38;;;;;;;52.60;26.50;;;;;;;19.38;100.00;100567.59;106112;1270;24288;-65
2022/08/24 03:58:10;;;;;;;52.50;26.80;;;;;;;19.39;100.00;100565.47;105985;1270;24316;-65
2022/08/24 04:00:42;;;;;;;48.20;25.30;;;;;;;19.41;100.00;100571.52;106016;1270;25335;-66
2022/08/24 04:03:15;;;;;;;53.20;25.70;;;;;;;19.43;100.00;100567.48;105940;1270;22527;-65
2022/08/24 04:05:47;;;;;;;50.30;24.80;;;;;;;19.44;100.00;100572.77;106002;1270;22530;-65
2022/08/24 04:08:19;;;;;;;43.40;22.90;;;;;;;19.45;100.00;100572.29;106045;1270;22681;-66
2022/08/24 04:10:52;;;;;;;52.80;26.10;;;;;;;19.45;100.00;100574.36;105968;1269;25127;-65
2022/08/24 04:13:23;;;;;;;49.30;25.80;;;;;;;19.46;100.00;100575.63;105983;1270;22552;-66
2022/08/24 04:15:55;;;;;;;47.40;25.70;;;;;;;19.45;100.00;100577.43;105966;1270;22703;-66
2022/08/24 04:18:27;;;;;;;50.00;25.20;;;;;;;19.45;100.00;100578.52;106034;1270;23856;-65
2022/08/24 04:20:59;;;;;;;50.10;24.00;;;;;;;19.44;100.00;100574.10;106008;1270;22543;-65
2022/08/24 04:23:32;;;;;;;47.90;24.50;;;;;;;19.44;100.00;100572.83;106225;1270;24384;-65
2022/08/24 04:26:06;;;;;;;48.80;25.10;;;;;;;19.43;100.00;100578.44;106121;1270;22544;-65
2022/08/24 04:28:37;;;;;;;51.30;26.50;;;;;;;19.44;100.00;100580.80;106053;1270;22528;-65
2022/08/24 04:31:10;;;;;;;47.70;24.90;;;;;;;19.46;100.00;100578.15;106062;1270;22531;-65
2022/08/24 04:33:42;;;;;;;46.50;23.80;;;;;;;19.48;100.00;100579.20;105969;1270;25265;-63
2022/08/24 04:36:14;;;;;;;44.90;24.30;;;;;;;19.47;100.00;100584.58;106034;1270;22703;-65
2022/08/24 04:38:46;;;;;;;53.70;25.40;;;;;;;19.46;100.00;100582.37;105962;1270;22705;-65
2022/08/24 04:41:19;;;;;;;41.80;24.50;;;;;;;19.47;100.00;100580.05;105976;1270;24333;-65
2022/08/24 04:43:51;;;;;;;46.10;23.60;;;;;;;19.48;100.00;100580.13;105896;1270;22547;-65
2022/08/24 04:46:22;;;;;;;51.40;24.40;;;;;;;19.49;100.00;100584.34;105928;1270;22538;-64
2022/08/24 04:48:54;;;;;;;47.20;24.40;;;;;;;19.50;100.00;100586.48;105927;1270;24432;-65
2022/08/24 04:51:26;;;;;;;49.50;25.60;;;;;;;19.51;100.00;100587.67;105975;1270;22695;-65
2022/08/24 04:53:58;;;;;;;46.50;23.80;;;;;;;19.51;100.00;100587.31;105989;1270;22757;-64
2022/08/24 04:56:30;;;;;;;46.10;24.50;;;;;;;19.52;100.00;100587.35;106104;1267;22531;-65
2022/08/24 04:59:03;;;;;;;48.50;25.20;;;;;;;19.52;100.00;100582.20;105939;1270;25059;-65
2022/08/24 05:01:35;;;;;;;50.90;23.60;;;;;;;19.52;100.00;100578.08;106061;1269;24438;-65
2022/08/24 05:04:07;;;;;;;50.20;25.40;;;;;;;19.51;100.00;100581.09;106059;1270;25274;-67
2022/08/24 05:06:40;;;;;;;46.00;24.10;;;;;;;19.51;100.00;100584.89;106010;1270;22549;-66
2022/08/24 05:09:12;;;;;;;45.50;24.30;;;;;;;19.52;100.00;100587.39;105976;1270;24265;-67
2022/08/24 05:11:44;;;;;;;47.80;25.30;;;;;;;19.52;100.00;100592.96;106094;1270;22708;-65
2022/08/24 05:14:16;;;;;;;55.50;26.90;;;;;;;19.53;100.00;100592.22;105914;1270;22531;-64
2022/08/24 05:16:47;;;;;;;46.90;23.90;;;;;;;19.54;100.00;100585.98;106073;1270;24285;-65
2022/08/24 05:19:20;;;;;;;50.80;26.50;;;;;;;19.55;100.00;100581.27;105813;1270;24306;-64
2022/08/24 05:21:52;;;;;;;46.90;22.90;;;;;;;19.56;100.00;100578.54;105973;1270;22544;-65
2022/08/24 05:24:24;;;;;;;50.00;24.60;;;;;;;19.57;100.00;100579.50;106025;1270;22611;-65
2022/08/24 05:26:56;;;;;;;48.40;24.40;;;;;;;19.59;100.00;100579.70;105940;1270;25378;-65
2022/08/24 05:29:32;;;;;;;46.10;22.50;;;;;;;19.60;100.00;100581.84;106325;1270;22532;-65
2022/08/24 05:32:04;;;;;;;36.50;20.20;;;;;;;19.61;100.00;100577.35;107794;1270;25328;-65
2022/08/24 05:34:36;;;;;;;42.00;22.60;;;;;;;19.59;100.00;100580.61;105867;1270;25450;-64
2022/08/24 05:37:09;;;;;;;46.00;22.50;;;;;;;19.58;100.00;100582.17;106048;1270;22692;-65
2022/08/24 05:39:40;;;;;;;46.80;22.10;;;;;;;19.59;100.00;100580.11;106009;1270;22607;-66
2022/08/24 05:42:12;;;;;;;41.90;22.30;;;;;;;19.57;100.00;100580.75;105945;1270;25330;-65
2022/08/24 05:44:44;;;;;;;40.90;22.10;;;;;;;19.56;100.00;100581.79;105873;1270;22611;-65
2022/08/24 05:47:16;;;;;;;37.30;21.20;;;;;;;19.57;100.00;100579.09;106029;1270;22610;-65
2022/08/24 05:49:50;;;;;;;41.70;21.80;;;;;;;19.59;100.00;100582.42;105862;1270;24427;-65
2022/08/24 05:52:23;;;;;;;43.60;23.70;;;;;;;19.60;100.00;100583.23;106394;1270;22528;-65
2022/08/24 05:54:57;;;;;;;49.00;22.60;;;;;;;19.61;100.00;100581.98;106044;1270;25271;-65
2022/08/24 05:57:34;;;;;;;43.50;22.80;;;;;;;19.64;100.00;100584.41;105932;1270;22555;-65
2022/08/24 06:00:09;;;;;;;49.70;22.80;;;;;;;19.65;100.00;100581.30;106275;1270;22528;-65
2022/08/24 06:02:41;;;;;;;44.30;22.70;;;;;;;19.67;100.00;100583.71;106396;1269;22530;-65
2022/08/24 06:05:14;;;;;;;49.10;24.20;;;;;;;19.69;100.00;100582.81;106005;1270;22537;-62
2022/08/24 06:07:45;;;;;;;43.90;23.60;;;;;;;19.70;100.00;100582.13;105974;1270;22548;-65
2022/08/24 06:10:18;;;;;;;53.90;24.40;;;;;;;19.71;100.00;100579.02;105890;1270;22556;-65
2022/08/24 06:12:49;;;;;;;49.40;25.40;;;;;;;19.72;100.00;100589.11;105991;1270;25370;-65
2022/08/24 06:15:21;;;;;;;45.80;23.10;;;;;;;19.73;100.00;100585.90;106159;1270;23193;-65
2022/08/24 06:17:53;;;;;;;44.20;22.10;;;;;;;19.75;100.00;100587.57;106099;1270;23159;-65
2022/08/24 06:20:25;;;;;;;45.20;23.90;;;;;;;19.77;100.00;100591.00;106030;1270;26570;-65
2022/08/24 06:22:57;;;;;;;44.30;22.70;;;;;;;19.78;100.00;100593.16;106018;1270;23099;-64
2022/08/24 06:28:18;;;;;;;40.50;20.60;;;;;;;19.86;100.00;100593.75;106052;1270;22558;-64
2022/08/24 06:30:50;;;;;;;35.80;19.40;;;;;;;19.91;100.00;100594.11;106042;1270;22584;-65
2022/08/24 06:33:24;;;;;;;39.80;20.20;;;;;;;19.95;100.00;100598.59;105985;1270;22640;-65
2022/08/24 06:35:57;;;;;;;35.40;19.00;;;;;;;19.98;100.00;100597.27;106204;1270;23063;-65
2022/08/24 06:38:30;;;;;;;35.20;18.80;;;;;;;20.01;100.00;100600.77;106393;1270;23022;-65
2022/08/24 06:41:02;;;;;;;31.30;17.20;;;;;;;20.06;100.00;100602.04;106499;1270;25264;-65
2022/08/24 06:43:34;;;;;;;33.70;18.00;;;;;;;20.10;100.00;100601.31;106500;1270;22544;-65
2022/08/24 06:46:07;;;;;;;34.10;18.30;;;;;;;20.15;100.00;100603.42;105919;1270;25538;-65
2022/08/24 06:48:39;;;;;;;32.90;17.70;;;;;;;20.20;100.00;100601.45;107664;1269;25346;-65
2022/08/24 06:51:16;;;;;;;28.20;16.30;;;;;;;20.24;100.00;100595.27;105980;1270;24414;-64
2022/08/24 06:53:49;;;;;;;30.10;16.20;;;;;;;20.28;100.00;100593.71;106263;1270;25452;-65
2022/08/24 06:56:20;;;;;;;30.40;15.90;;;;;;;20.31;100.00;100598.83;106110;1270;26550;-66
2022/08/24 06:58:53;;;;;;;29.60;16.20;;;;;;;20.33;100.00;100601.63;106111;1270;22778;-65
2022/08/24 07:01:27;;;;;;;28.10;14.30;;;;;;;20.35;100.00;100601.35;106068;1270;25165;-65
2022/08/24 07:03:59;;;;;;;26.10;15.70;;;;;;;20.36;100.00;100606.54;105970;1269;25320;-65
2022/08/24 07:06:30;;;;;;;26.40;14.00;;;;;;;20.37;100.00;100601.72;106118;1270;22530;-65
2022/08/24 07:09:02;;;;;;;24.60;14.00;;;;;;;20.39;100.00;100598.08;105911;1270;24301;-64
2022/08/24 07:11:34;;;;;;;25.50;13.70;;;;;;;20.40;100.00;100599.46;106020;1270;22699;-65
2022/08/24 07:14:12;;;;;;;25.10;13.10;;;;;;;20.41;100.00;100595.98;106223;1270;23173;-65
2022/08/24 07:16:44;;;;;;;24.80;13.90;;;;;;;20.39;100.00;100601.94;105933;1270;22698;-64
2022/08/24 07:19:17;;;;;;;25.40;14.40;;;;;;;20.38;100.00;100595.38;105755;1270;22595;-65
2022/08/24 07:21:56;;;;;;;23.40;12.40;;;;;;;20.38;100.00;100594.13;106238;1270;25335;-65
2022/08/24 07:24:34;;;;;;;24.70;12.50;;;;;;;20.38;100.00;100591.11;105824;1270;22556;-66
2022/08/24 07:27:08;;;;;;;25.60;12.90;;;;;;;20.37;100.00;100595.13;105915;1270;22677;-66
2022/08/24 07:29:40;;;;;;;22.20;12.80;;;;;;;20.36;100.00;100595.30;106079;1270;22632;-66
2022/08/24 07:32:11;;;;;;;23.80;12.80;;;;;;;20.37;100.00;100596.37;106053;1270;25439;-65
2022/08/24 07:34:43;;;;;;;22.70;13.20;;;;;;;20.39;100.00;100598.87;105799;1270;25257;-65
2022/08/24 07:37:25;;;;;;;22.40;12.30;;;;;;;20.40;100.00;100602.98;105882;1270;25262;-65
2022/08/24 07:40:02;;;;;;;24.90;13.30;;;;;;;20.42;100.00;100608.81;105921;1270;24366;-65
2022/08/24 07:42:47;;;;;;;27.20;14.30;;;;;;;20.47;100.00;100614.27;105876;1270;24320;-66
2022/08/24 07:45:21;;;;;;;25.50;13.70;;;;;;;20.50;100.00;100614.52;105950;1270;22534;-65
2022/08/24 07:47:53;;;;;;;24.50;13.10;;;;;;;20.54;100.00;100618.64;106186;1270;22543;-65
2022/08/24 07:50:26;;;;;;;26.20;14.40;;;;;;;20.58;100.00;100618.71;105733;1270;24388;-65
2022/08/24 07:52:58;;;;;;;24.40;12.90;;;;;;;20.62;100.00;100624.39;107735;1270;22549;-65
2022/08/24 07:55:30;;;;;;;28.30;15.20;;;;;;;20.65;100.00;100628.55;107919;1270;24316;-65
2022/08/24 07:58:02;;;;;;;31.20;14.20;;;;;;;20.68;100.00;100632.59;105909;1270;25376;-65
2022/08/24 08:00:35;;;;;;;28.10;16.70;;;;;;;20.71;100.00;100632.91;106678;1270;24376;-65
2022/08/24 08:03:07;;;;;;;28.80;14.40;;;;;;;20.74;100.00;100632.33;106434;1270;22791;-66
2022/08/24 08:05:42;;;;;;;29.00;15.90;;;;;;;20.75;100.00;100635.27;106057;1270;22556;-65
2022/08/24 08:08:13;;;;;;;33.00;15.10;;;;;;;20.79;100.00;100637.73;106595;1270;23733;-65
2022/08/24 08:10:45;;;;;;;27.30;14.30;;;;;;;20.81;100.00;100638.73;105736;1270;22544;-69
2022/08/24 08:13:17;;;;;;;25.60;15.00;;;;;;;20.83;100.00;100638.27;107753;1270;22622;-65
2022/08/24 08:15:49;;;;;;;30.00;15.20;;;;;;;20.88;100.00;100641.71;105853;1270;22582;-65
2022/08/24 08:18:22;;;;;;;32.20;17.60;;;;;;;20.90;100.00;100641.93;105792;1270;24438;-65
2022/08/24 08:20:54;;;;;;;31.20;17.10;;;;;;;20.92;100.00;100641.43;105898;1270;25436;-64
2022/08/24 08:26:21;;;;;;;26.80;14.70;;;;;;;20.91;100.00;100643.46;105909;1270;24242;-65
2022/08/24 08:28:52;;;;;;;24.40;13.40;;;;;;;20.93;100.00;100648.38;106335;1270;25424;-66
2022/08/24 08:31:24;;;;;;;25.10;15.00;;;;;;;20.97;100.00;100648.77;105826;1270;22538;-65
2022/08/24 08:33:56;;;;;;;26.80;14.90;;;;;;;21.03;100.00;100652.73;106148;1270;24375;-64
2022/08/24 08:36:29;;;;;;;30.30;16.20;;;;;;;21.07;100.00;100653.75;105914;1270;22541;-65
2022/08/24 08:39:01;;;;;;;24.90;13.80;;;;;;;21.11;100.00;100659.45;106617;1270;22521;-65
2022/08/24 08:42:13;;;;;;;27.40;14.80;;;;;;;21.12;100.00;100661.73;105982;1270;27454;-65
2022/08/24 08:44:59;;;;;;;30.90;15.00;;;;;;;21.14;100.00;100668.13;106055;1270;23931;-65
2022/08/24 08:48:02;;;;;;;28.70;15.40;;;;;;;21.16;100.00;100672.02;106111;1270;24287;-65
2022/08/24 08:51:04;;;;;;;29.60;15.00;;;;;;;21.19;100.00;100678.27;105881;1270;24776;-65
2022/08/24 08:54:03;;;;;;;26.70;13.60;;;;;;;21.20;100.00;100680.14;105596;1276;24444;-65
2022/08/24 08:56:42;;;;;;;28.40;13.70;;;;;;;21.21;100.00;100680.71;106213;1275;22694;-65
2022/08/24 08:59:18;;;;;;;;;;;;;;;21.20;100.00;100688.63;105752;1276;22520;-65
2022/08/24 09:02:01;;;;;;;27.00;14.70;;;;;;;21.17;100.00;100687.59;105522;1276;25331;-65
2022/08/24 09:04:59;;;;;;;24.90;13.40;;;;;;;21.16;100.00;100683.59;105547;1276;25266;-67
2022/08/24 09:07:47;;;;;;;29.60;16.00;;;;;;;21.15;100.00;100683.91;105518;1276;22612;-65
2022/08/24 09:10:46;;;;;;;26.20;14.30;;;;;;;21.14;100.00;100685.21;105856;1276;24406;-65
2022/08/24 09:13:32;;;;;;;31.10;14.90;;;;;;;21.18;100.00;100688.25;105625;1276;22540;-65
2022/08/24 09:16:16;;;;;;;31.90;13.70;;;;;;;21.21;100.00;100691.29;105950;1276;22554;-66
2022/08/24 09:19:14;;;;;;;28.20;14.50;;;;;;;21.24;100.00;100689.95;105544;1276;22576;-64
2022/08/24 09:22:01;;;;;;;29.20;14.00;;;;;;;21.25;100.00;100693.48;105576;1276;25472;-65
2022/08/24 09:25:03;;;;;;;25.70;15.30;;;;;;;21.29;100.00;100690.58;106445;1275;24427;-65
2022/08/24 09:27:46;;;;;;;33.30;17.50;;;;;;;21.34;100.00;100693.02;105646;1275;25292;-65
2022/08/24 09:30:22;;;;;;;27.50;15.70;;;;;;;21.34;100.00;100687.39;105550;1275;24283;-65
2022/08/24 09:33:18;;;;;;;31.30;16.10;;;;;;;21.32;100.00;100689.70;107830;1270;25414;-65
2022/08/24 09:36:09;;;;;;;29.20;16.40;;;;;;;21.33;100.00;100695.98;105907;1270;26508;-67
2022/08/24 09:39:13;;;;;;;28.50;16.00;;;;;;;21.34;100.00;100695.40;106017;1270;22540;-65
2022/08/24 09:42:23;;;;;;;30.40;15.30;;;;;;;21.36;100.00;100703.42;105974;1269;22596;-65
2022/08/24 09:45:25;;;;;;;27.80;14.50;;;;;;;21.36;100.00;100703.36;106518;1270;22623;-66
2022/08/24 09:48:31;;;;;;;29.40;14.90;;;;;;;21.34;100.00;100705.41;105849;1270;24053;-65
2022/08/24 09:51:36;;;;;;;27.60;14.90;;;;;;;21.36;100.00;100710.13;105956;1270;24267;-65
2022/08/24 09:54:44;;;;;;;25.50;13.30;;;;;;;21.39;100.00;100714.38;106247;1270;23043;-65
2022/08/24 09:57:43;;;;;;;26.20;12.90;;;;;;;21.41;100.00;100712.98;105455;1276;23944;-65
2022/08/24 10:00:22;;;;;;;28.00;14.60;;;;;;;21.41;100.00;100710.14;105848;1274;24451;-64
2022/08/24 10:03:17;;;;;;;26.60;13.80;;;;;;;21.38;100.00;100702.14;106170;1276;22790;-64
2022/08/24 10:06:13;;;;;;;28.40;16.10;;;;;;;21.36;100.00;100705.17;105728;1276;22534;-66
2022/08/24 10:09:03;;;;;;;24.10;14.30;;;;;;;21.38;100.00;100707.88;106581;1276;25752;-65
2022/08/24 10:11:48;;;;;;;27.40;15.10;;;;;;;21.42;100.00;100707.40;104753;1276;5535936;-65
2022/08/24 10:14:36;;;;;;;25.30;13.90;;;;;;;21.48;100.00;100706.71;106319;1276;22555;-66
2022/08/24 10:17:20;;;;;;;24.50;13.70;;;;;;;21.54;100.00;100706.60;105595;1276;25262;-66
2022/08/24 10:20:08;;;;;;;27.30;13.30;;;;;;;21.59;100.00;100702.13;105906;1276;22710;-65
2022/08/24 10:23:07;;;;;;;25.30;13.60;;;;;;;21.61;100.00;100701.30;105477;1276;22547;-65
2022/08/24 10:25:46;;;;;;;26.60;13.80;;;;;;;21.64;100.00;100699.48;109388;1276;22455;-66
2022/08/24 10:28:44;;;;;;;26.20;13.50;;;;;;;21.68;100.00;100695.91;107166;1276;25438;-65
2022/08/24 10:31:25;;;;;;;23.80;12.50;;;;;;;21.75;100.00;100699.04;106765;1276;22558;-64
2022/08/24 10:34:22;;;;;;;24.70;12.50;;;;;;;21.82;100.00;100699.95;105545;1270;25281;-65
2022/08/24 10:37:35;;;;;;;27.20;14.30;;;;;;;21.89;100.00;100699.72;106034;1270;22518;-66
2022/08/24 10:40:22;;;;;;;28.00;14.90;;;;;;;21.96;100.00;100699.21;106142;1270;22478;-65
2022/08/24 10:46:37;;;;;;;23.50;12.10;;;;;;;22.00;100.00;100694.21;105833;1270;22550;-65
2022/08/24 10:49:47;;;;;;;21.00;10.90;;;;;;;21.99;99.89;100690.20;106078;1270;22554;-66
2022/08/24 10:52:49;;;;;;;24.00;13.70;;;;;;;22.01;100.00;100687.56;105981;1270;22528;-67
2022/08/24 10:55:25;;;;;;;26.10;12.00;;;;;;;22.12;100.00;100685.45;105754;1273;22704;-66
2022/08/24 10:58:11;;;;;;;21.40;11.00;;;;;;;22.25;99.95;100682.67;105924;1273;22547;-65
2022/08/24 11:00:43;;;;;;;21.60;12.70;;;;;;;22.34;99.10;100684.55;105807;1273;23468;-65
2022/08/24 11:03:20;;;;;;;21.30;11.70;;;;;;;22.32;98.50;100688.42;105979;1273;22780;-67
2022/08/24 11:05:54;;;;;;;25.20;12.30;;;;;;;22.31;98.66;100693.96;105811;1273;22527;-65
2022/08/24 11:08:29;;;;;;;26.80;12.20;;;;;;;22.31;97.75;100687.50;105856;1273;22549;-65
2022/08/24 11:11:10;;;;;;;23.30;12.50;;;;;;;22.35;99.09;100682.39;105695;1273;22579;-66
2022/08/24 11:13:57;;;;;;;20.20;11.30;;;;;;;22.45;99.40;100683.42;105702;1273;22612;-65
2022/08/24 11:16:34;;;;;;;22.40;11.10;;;;;;;22.54;98.79;100686.79;105777;1273;25326;-65
2022/08/24 11:19:12;;;;;;;23.90;11.80;;;;;;;22.56;98.78;100689.89;105872;1273;24922;-66
2022/08/24 11:21:54;;;;;;;20.80;12.00;;;;;;;22.59;98.12;100692.08;105774;1273;22615;-65
2022/08/24 11:24:42;;;;;;;27.90;11.30;;;;;;;22.58;97.57;100699.64;105744;1273;23545;-66
2022/08/24 11:27:29;;;;;;;22.80;11.70;;;;;;;22.57;97.26;100708.71;105763;1273;25237;-66
2022/08/24 11:30:06;;;;;;;22.40;10.10;;;;;;;22.60;97.71;100704.83;105797;1273;24334;-65
2022/08/24 11:32:46;;;;;;;20.90;10.90;;;;;;;22.71;98.00;100704.13;105760;1270;22614;-65
2022/08/24 11:35:24;;;;;;;19.30;10.40;;;;;;;22.81;97.46;100708.13;106236;1270;22608;-65
2022/08/24 11:37:58;;;;;;;22.00;11.30;;;;;;;22.88;96.94;100707.79;106139;1270;25432;-66
2022/08/24 11:40:37;;;;;;;21.90;10.00;;;;;;;22.91;96.29;100705.77;106158;1270;24333;-66
2022/08/24 11:43:36;;;;;;;19.50;9.90;;;;;;;22.93;95.67;100708.86;106092;1270;25598;-65
2022/08/24 11:46:26;;;;;;;20.70;9.40;;;;;;;22.95;95.11;100711.23;106030;1270;25320;-66
2022/08/24 11:49:09;;;;;;;22.30;9.90;;;;;;;22.96;95.21;100706.05;106008;1270;24224;-66